KFAF/FAF METAR and TAF weather

Enter ICAO airport designator
Station Type Date Time Source
KFAF METAR 2022/12/04 03:55 UTC NOAA

KFAF 040355Z AUTO 30005KT 10SM CLR 13/11 A3016 RMK AO2 SLP217 T01270114 $


Station Type Date Time Source
KFAF Decoded METAR 2022/12/04 03:55 UTC NOAA

Fort Eustis / Felker, VA, United States (KFAF) 37-08N 076-37W
Dec 03, 2022 - 10:55 PM EST / 2022.12.04 0355 UTC
Wind: from the WNW (300 degrees) at 6 MPH (5 KT):0
Visibility: 10 mile(s):0
Sky conditions: clear
Temperature: 54.9 F (12.7 C)
Dew Point: 52.5 F (11.4 C)
Relative Humidity: 91%
Pressure (altimeter): 30.16 in. Hg (1021 hPa)
ob: KFAF 040355Z AUTO 30005KT 10SM CLR 13/11 A3016 RMK AO2 SLP217 T01270114
cycle: 4

Station Type Date Time Source
KFAF TAF 2022/12/03 04:03 UTC NOAA

TAF TAF
AMD KFAF 030400Z 0304/0409 18009KT 9999 SCT050 BKN120 QNH3038INS
BECMG 0310/0311 19012G18KT 8000 -SHRA BKN040 OVC100 QNH3014INS
BECMG 0320/0321 22012KT 9999 NSW OVC020 QNH3014INS
BECMG 0405/0406 35012KT 9999 SCT035 QNH3023INS TX17/0320Z TN09/0306Z LAST NO
AMDS AFT 0304 NEXT 0511

Example: see airport list